Time;durP1;ratioP1;P1;durP2;ratioP2;P2;SDS_P1;SDS_P2;PMS_P1;PMS_P2;Temp;Humidity;BMP_temperature;BMP_pressure;BME280_temperature;BME280_humidity;BME280_pressure;Samples;Min_cycle;Max_cycle;Signal;HPM_P1;HPM_P2
2023/07/11 00:01:42;;;;;;;10.70;2.53;;;18.80;90.70;;;;;;4973234;28;20039;-81
2023/07/11 00:04:07;;;;;;;9.27;1.67;;;18.80;90.30;;;;;;4972519;28;20038;-82
2023/07/11 00:06:33;;;;;;;9.65;2.10;;;18.90;89.90;;;;;;4973540;28;20035;-82
2023/07/11 00:08:59;;;;;;;8.80;2.08;;;18.90;90.20;;;;;;4972069;28;20027;-81
2023/07/11 00:11:24;;;;;;;9.35;1.80;;;18.90;89.70;;;;;;4974666;28;20457;-82
2023/07/11 00:13:50;;;;;;;11.63;2.08;;;19.00;89.10;;;;;;4974453;28;20014;-82
2023/07/11 00:16:16;;;;;;;8.57;2.03;;;19.10;88.90;;;;;;4957295;28;20053;-82
2023/07/11 00:18:43;;;;;;;10.18;2.47;;;19.10;88.80;;;;;;4974704;28;20023;-82
2023/07/11 00:21:08;;;;;;;10.07;2.75;;;19.10;88.50;;;;;;4974550;28;20037;-81
2023/07/11 00:23:34;;;;;;;13.30;2.35;;;19.20;88.80;;;;;;4974648;28;20382;-82
2023/07/11 00:26:00;;;;;;;6.43;1.73;;;19.20;88.20;;;;;;4974404;28;20364;-82
2023/07/11 00:28:26;;;;;;;10.60;1.88;;;19.30;88.00;;;;;;4988720;23;20050;-76
2023/07/11 00:30:52;;;;;;;5.90;1.85;;;19.20;88.00;;;;;;4974908;28;20031;-77
2023/07/11 00:33:18;;;;;;;8.85;1.85;;;19.30;88.10;;;;;;4974039;28;20493;-78
2023/07/11 00:35:50;;;;;;;9.70;2.65;;;19.20;88.30;;;;;;4969445;28;20031;-78
2023/07/11 00:38:15;;;;;;;9.32;2.00;;;19.10;88.90;;;;;;4973931;28;20026;-78
2023/07/11 00:40:43;;;;;;;4.50;1.70;;;19.10;89.20;;;;;;4974130;28;20018;-77
2023/07/11 00:43:11;;;;;;;7.10;2.10;;;19.10;89.80;;;;;;4973905;28;20023;-78
2023/07/11 00:45:49;;;;;;;4.80;2.50;;;19.10;89.80;;;;;;4966479;28;20054;-77
2023/07/11 00:48:21;;;;;;;10.50;2.28;;;19.10;89.70;;;;;;4974158;28;20023;-77
2023/07/11 00:50:47;;;;;;;9.13;1.85;;;19.10;89.80;;;;;;4973616;28;20089;-78
2023/07/11 00:53:13;;;;;;;5.35;2.10;;;19.10;90.00;;;;;;4973969;28;20014;-78
2023/07/11 00:55:39;;;;;;;9.05;2.20;;;19.10;90.00;;;;;;4973847;28;20428;-78
2023/07/11 00:58:05;;;;;;;17.33;2.10;;;19.00;90.40;;;;;;4973697;28;20019;-78
2023/07/11 01:00:32;;;;;;;12.07;2.47;;;19.00;90.60;;;;;;4973410;28;20058;-78
2023/07/11 01:02:58;;;;;;;9.43;2.25;;;18.90;90.80;;;;;;4973941;28;20026;-77
2023/07/11 01:05:23;;;;;;;9.40;2.17;;;18.90;90.90;;;;;;4973803;28;20230;-78
2023/07/11 01:07:49;;;;;;;7.03;2.33;;;18.90;90.90;;;;;;4971708;28;20019;-78
2023/07/11 01:10:15;;;;;;;8.35;2.10;;;18.90;90.90;;;;;;4973759;28;20039;-77
2023/07/11 01:12:46;;;;;;;7.65;2.33;;;18.90;91.10;;;;;;4973330;28;20050;-78
2023/07/11 01:15:12;;;;;;;5.03;1.85;;;18.90;91.10;;;;;;4973635;28;20069;-78
2023/07/11 01:17:38;;;;;;;8.10;2.25;;;18.80;91.20;;;;;;4973778;28;20047;-78
2023/07/11 01:20:07;;;;;;;7.50;3.38;;;18.90;91.20;;;;;;4973207;28;20054;-78
2023/07/11 01:22:38;;;;;;;11.35;2.85;;;18.80;91.30;;;;;;4955789;28;20023;-77
2023/07/11 01:25:12;;;;;;;8.65;2.00;;;18.80;91.20;;;;;;4955591;28;20079;-79
2023/07/11 01:27:40;;;;;;;7.43;2.60;;;18.80;91.10;;;;;;4955438;28;20026;-78
2023/07/11 01:30:08;;;;;;;4.75;2.17;;;18.80;91.10;;;;;;4972742;28;20035;-77
2023/07/11 01:32:34;;;;;;;5.47;2.20;;;18.80;91.10;;;;;;4955330;28;20023;-78
2023/07/11 01:35:00;;;;;;;8.13;2.05;;;18.80;91.10;;;;;;4955863;28;20038;-77
2023/07/11 01:37:26;;;;;;;7.40;2.33;;;18.80;91.00;;;;;;4955972;28;20030;-77
2023/07/11 01:39:52;;;;;;;8.77;2.05;;;18.80;91.00;;;;;;4972982;28;20392;-77
2023/07/11 01:42:18;;;;;;;9.25;2.53;;;18.80;91.10;;;;;;4955721;28;20019;-77
2023/07/11 01:44:43;;;;;;;5.78;1.92;;;18.80;91.20;;;;;;4972539;28;20534;-77
2023/07/11 01:47:09;;;;;;;6.38;2.00;;;18.70;91.30;;;;;;4972209;28;20118;-78
2023/07/11 01:49:35;;;;;;;7.85;2.35;;;18.70;91.50;;;;;;4972930;28;20027;-78
2023/07/11 01:52:18;;;;;;;6.80;2.03;;;18.70;91.60;;;;;;4955713;28;20031;-79
2023/07/11 01:54:44;;;;;;;11.10;2.22;;;18.80;91.60;;;;;;4966737;28;20119;-77
2023/07/11 01:59:45;;;;;;;5.35;2.00;;;18.90;91.50;;;;;;4990698;28;20046;-81
2023/07/11 02:02:12;;;;;;;6.97;2.05;;;18.80;91.70;;;;;;4982878;28;20037;-80
2023/07/11 02:04:38;;;;;;;9.93;3.00;;;18.80;91.80;;;;;;4973296;28;20097;-81
2023/07/11 02:07:05;;;;;;;16.25;2.58;;;18.80;92.00;;;;;;4972760;28;20130;-81
2023/07/11 02:09:31;;;;;;;14.05;3.08;;;18.80;92.10;;;;;;4972649;28;20037;-81
2023/07/11 02:11:57;;;;;;;10.75;2.83;;;18.80;92.20;;;;;;4972626;28;20518;-78
2023/07/11 02:14:23;;;;;;;6.40;2.00;;;18.90;92.40;;;;;;4955020;28;20102;-80
2023/07/11 02:16:51;;;;;;;6.85;2.28;;;18.90;92.30;;;;;;4954900;28;20019;-80
2023/07/11 02:19:20;;;;;;;7.72;2.25;;;18.90;92.30;;;;;;4972556;28;20357;-81
2023/07/11 02:21:47;;;;;;;9.52;2.38;;;18.90;92.40;;;;;;4954799;28;20015;-81
2023/07/11 02:24:14;;;;;;;6.40;2.25;;;18.90;92.40;;;;;;4972391;28;20018;-81
2023/07/11 02:26:40;;;;;;;8.60;2.25;;;19.00;92.20;;;;;;4972219;28;20183;-81
2023/07/11 02:29:07;;;;;;;11.85;2.60;;;19.00;92.30;;;;;;4973399;28;20043;-80
2023/07/11 02:31:34;;;;;;;8.23;2.08;;;18.90;92.50;;;;;;4971506;28;20035;-83
2023/07/11 02:34:00;;;;;;;12.68;2.35;;;18.90;92.60;;;;;;4954981;28;20383;-81
2023/07/11 02:36:27;;;;;;;9.80;2.30;;;18.80;92.70;;;;;;4971991;28;20030;-78
2023/07/11 02:38:52;;;;;;;13.52;2.60;;;18.80;92.90;;;;;;4972140;28;20023;-82
2023/07/11 02:41:18;;;;;;;10.40;2.65;;;18.80;93.00;;;;;;4972331;28;20029;-83
2023/07/11 02:43:46;;;;;;;12.68;2.50;;;18.80;92.80;;;;;;4971664;28;20031;-84
2023/07/11 02:46:13;;;;;;;6.28;2.40;;;18.80;92.70;;;;;;4971944;28;20038;-81
2023/07/11 02:48:39;;;;;;;10.40;2.72;;;18.90;92.60;;;;;;4972110;28;20525;-81
2023/07/11 02:51:05;;;;;;;9.20;2.53;;;18.90;92.60;;;;;;4972083;28;20031;-81
2023/07/11 02:53:30;;;;;;;6.38;2.35;;;18.90;92.70;;;;;;4971806;28;20519;-80
2023/07/11 02:55:56;;;;;;;11.95;3.17;;;18.90;92.80;;;;;;4971206;28;20023;-84
2023/07/11 02:58:23;;;;;;;12.20;2.38;;;18.90;92.90;;;;;;4968706;23;20030;-77
2023/07/11 03:00:55;;;;;;;7.15;2.38;;;18.80;92.90;;;;;;4972068;28;20546;-81
2023/07/11 03:03:21;;;;;;;10.90;3.08;;;18.90;93.00;;;;;;4971949;28;20105;-80
2023/07/11 03:05:49;;;;;;;8.73;2.22;;;18.90;93.10;;;;;;4954781;28;20022;-78
2023/07/11 03:08:16;;;;;;;7.78;2.45;;;18.90;93.10;;;;;;4971990;28;20023;-80
2023/07/11 03:10:42;;;;;;;16.35;3.10;;;18.80;93.20;;;;;;4971862;28;20039;-80
2023/07/11 03:13:08;;;;;;;8.77;2.60;;;18.80;93.40;;;;;;4971927;28;20022;-79
2023/07/11 03:15:38;;;;;;;13.82;3.05;;;18.80;93.50;;;;;;4971613;28;20019;-80
2023/07/11 03:18:05;;;;;;;8.65;2.80;;;18.80;93.60;;;;;;4971364;28;20019;-79
2023/07/11 03:20:35;;;;;;;10.23;3.00;;;18.70;93.80;;;;;;4951900;28;20064;-79
2023/07/11 03:23:01;;;;;;;17.38;2.75;;;18.80;94.00;;;;;;4967879;28;20026;-79
2023/07/11 03:25:27;;;;;;;11.52;2.53;;;18.70;94.10;;;;;;4968950;28;20102;-79
2023/07/11 03:27:52;;;;;;;13.45;2.95;;;18.70;94.10;;;;;;4970045;28;20364;-79
2023/07/11 03:30:18;;;;;;;10.57;2.47;;;18.70;94.30;;;;;;4967067;28;20039;-78
2023/07/11 03:32:44;;;;;;;9.15;2.45;;;18.70;94.40;;;;;;4975354;28;20066;-79
2023/07/11 03:35:09;;;;;;;9.20;2.33;;;18.70;94.60;;;;;;4974603;28;20034;-79
2023/07/11 03:37:35;;;;;;;13.32;3.03;;;18.70;94.50;;;;;;4960776;28;20539;-79
2023/07/11 03:40:00;;;;;;;19.70;4.65;;;18.60;94.70;;;;;;4975216;28;20041;-79
2023/07/11 03:42:26;;;;;;;6.45;2.40;;;18.60;94.90;;;;;;4974957;28;20029;-77
2023/07/11 03:44:52;;;;;;;16.38;3.00;;;18.60;94.90;;;;;;4975235;28;20094;-80
2023/07/11 03:47:17;;;;;;;12.07;4.03;;;18.60;95.00;;;;;;4975076;28;20368;-79
2023/07/11 03:49:43;;;;;;;13.65;2.53;;;18.60;95.00;;;;;;4974847;28;20046;-80
2023/07/11 03:52:09;;;;;;;13.95;2.75;;;18.60;95.00;;;;;;4974894;28;20054;-79
2023/07/11 03:54:34;;;;;;;15.20;3.28;;;18.70;95.00;;;;;;4974579;28;20448;-79
2023/07/11 03:57:00;;;;;;;12.18;3.13;;;18.70;95.10;;;;;;4974857;28;20539;-79
2023/07/11 03:59:26;;;;;;;10.85;2.80;;;18.70;94.90;;;;;;4988501;23;20496;-81
2023/07/11 04:01:51;;;;;;;16.20;3.35;;;18.70;95.00;;;;;;4973904;28;20510;-83
2023/07/11 04:04:17;;;;;;;12.90;3.22;;;18.70;95.00;;;;;;4974942;28;20027;-81
2023/07/11 04:06:43;;;;;;;13.48;2.53;;;18.60;95.00;;;;;;4974815;28;20022;-80
2023/07/11 04:09:08;;;;;;;10.95;3.03;;;18.60;95.00;;;;;;4974659;28;20464;-83
2023/07/11 04:11:34;;;;;;;13.52;2.95;;;18.60;95.10;;;;;;4974566;28;20543;-83
2023/07/11 04:14:00;;;;;;;8.57;2.80;;;18.60;95.10;;;;;;4974658;28;20027;-84
2023/07/11 04:16:25;;;;;;;10.10;2.83;;;18.60;95.30;;;;;;4974606;28;20098;-82
2023/07/11 04:18:51;;;;;;;14.15;3.10;;;18.60;95.30;;;;;;4974417;28;20027;-82
2023/07/11 04:21:17;;;;;;;14.73;3.83;;;18.60;95.60;;;;;;4974147;28;20030;-82
2023/07/11 04:23:43;;;;;;;11.38;3.05;;;18.60;95.90;;;;;;4979155;28;20491;-82
2023/07/11 04:26:08;;;;;;;18.35;3.72;;;18.50;95.90;;;;;;4974092;28;20023;-80
2023/07/11 04:28:34;;;;;;;14.20;3.70;;;18.50;95.80;;;;;;4974978;28;20026;-82
2023/07/11 04:31:00;;;;;;;12.60;2.40;;;18.50;96.10;;;;;;4974255;28;20395;-82
2023/07/11 04:33:25;;;;;;;14.15;3.50;;;18.40;96.70;;;;;;4974446;28;20019;-80
2023/07/11 04:35:52;;;;;;;15.35;3.70;;;18.40;97.20;;;;;;4974462;28;20113;-82
2023/07/11 04:38:17;;;;;;;14.02;3.40;;;18.30;97.50;;;;;;4974460;28;20051;-81
2023/07/11 04:40:45;;;;;;;14.43;3.35;;;18.20;98.20;;;;;;4972659;28;20772;-80
2023/07/11 04:43:11;;;;;;;16.88;3.10;;;18.20;98.60;;;;;;4972827;28;20023;-82
2023/07/11 04:45:36;;;;;;;9.20;3.05;;;18.10;99.10;;;;;;4974058;28;20374;-80
2023/07/11 04:48:02;;;;;;;9.75;3.42;;;18.10;99.40;;;;;;4973480;28;20027;-80
2023/07/11 04:50:28;;;;;;;17.75;3.92;;;18.00;99.70;;;;;;4974145;28;20082;-81
2023/07/11 04:52:54;;;;;;;16.27;3.55;;;17.90;99.90;;;;;;4974304;28;20427;-81
2023/07/11 04:55:19;;;;;;;10.52;3.45;;;17.90;99.90;;;;;;4973905;28;20034;-82
2023/07/11 04:57:45;;;;;;;15.93;3.83;;;17.90;99.90;;;;;;4969851;23;19999;-79
2023/07/11 05:00:11;;;;;;;12.20;3.90;;;18.00;99.90;;;;;;4993361;28;20041;-80
2023/07/11 05:02:37;;;;;;;16.08;4.47;;;17.90;99.90;;;;;;4992705;28;20025;-79
2023/07/11 05:05:03;;;;;;;9.15;3.42;;;17.90;99.90;;;;;;4993116;28;20374;-80
2023/07/11 05:07:29;;;;;;;10.98;3.28;;;17.90;99.90;;;;;;4993366;28;20068;-79
2023/07/11 05:09:54;;;;;;;14.05;3.22;;;17.80;99.90;;;;;;4992882;28;20066;-79
2023/07/11 05:12:20;;;;;;;13.93;3.67;;;17.80;99.90;;;;;;4993281;28;20077;-80
2023/07/11 05:14:45;;;;;;;12.90;3.72;;;17.70;99.90;;;;;;4993299;28;20102;-81
2023/07/11 05:17:11;;;;;;;11.70;3.60;;;17.70;99.90;;;;;;4992830;28;20026;-81
2023/07/11 05:19:37;;;;;;;15.65;4.30;;;17.70;99.90;;;;;;4992457;28;20080;-80
2023/07/11 05:22:02;;;;;;;13.75;4.15;;;17.70;99.90;;;;;;4992931;28;20045;-79
2023/07/11 05:24:30;;;;;;;11.30;3.78;;;17.70;99.90;;;;;;4992308;28;20106;-81
2023/07/11 05:26:56;;;;;;;16.02;4.10;;;17.60;99.90;;;;;;4992277;28;20015;-82
2023/07/11 05:29:22;;;;;;;14.93;3.38;;;17.60;99.90;;;;;;4992006;28;20130;-80
2023/07/11 05:31:48;;;;;;;15.02;3.33;;;17.60;99.90;;;;;;4992125;28;20022;-80
2023/07/11 05:34:14;;;;;;;17.08;3.30;;;17.60;99.90;;;;;;4992062;28;20026;-80
2023/07/11 05:36:39;;;;;;;10.63;3.13;;;17.60;99.90;;;;;;4991744;28;20073;-81
2023/07/11 05:39:09;;;;;;;15.23;3.13;;;17.60;99.90;;;;;;4992026;28;20027;-81
2023/07/11 05:41:36;;;;;;;6.50;2.35;;;17.60;99.90;;;;;;4991962;28;20674;-80
2023/07/11 05:44:01;;;;;;;11.10;2.50;;;17.60;99.90;;;;;;4992028;28;20057;-79
2023/07/11 05:46:28;;;;;;;10.98;1.83;;;17.60;99.90;;;;;;4974985;28;20463;-79
2023/07/11 05:48:55;;;;;;;4.72;1.55;;;17.60;99.90;;;;;;4992290;28;20049;-80
2023/07/11 05:51:21;;;;;;;3.95;1.30;;;17.70;99.90;;;;;;4992021;28;20036;-81
2023/07/11 05:53:50;;;;;;;4.80;1.10;;;17.60;99.90;;;;;;4992399;28;20022;-79
2023/07/11 05:56:18;;;;;;;5.15;1.63;;;17.60;99.90;;;;;;4992358;28;20010;-80
2023/07/11 05:58:44;;;;;;;5.95;1.30;;;17.60;99.90;;;;;;4995030;23;20039;-86
2023/07/11 06:01:20;;;;;;;4.78;1.00;;;17.60;99.90;;;;;;4970930;28;20057;-83
2023/07/11 06:03:47;;;;;;;3.78;0.95;;;17.60;99.90;;;;;;4964408;28;20110;-84
2023/07/11 06:06:15;;;;;;;4.10;1.45;;;17.60;99.90;;;;;;4972374;28;20015;-85
2023/07/11 06:08:41;;;;;;;6.65;1.40;;;17.60;99.90;;;;;;4972738;28;20023;-86
2023/07/11 06:11:07;;;;;;;4.30;1.17;;;17.60;99.90;;;;;;4972788;28;20533;-83
2023/07/11 06:13:35;;;;;;;5.18;1.30;;;17.60;99.90;;;;;;4972650;28;20030;-84
2023/07/11 06:16:12;;;;;;;8.32;1.70;;;17.70;99.90;;;;;;4972783;28;20034;-84
2023/07/11 06:18:38;;;;;;;3.78;0.98;;;17.70;99.90;;;;;;4972612;28;20086;-84
2023/07/11 06:21:07;;;;;;;5.72;1.00;;;17.80;99.90;;;;;;4971236;28;20057;-85
2023/07/11 06:23:33;;;;;;;6.47;1.08;;;17.80;99.90;;;;;;4972175;28;20106;-83
2023/07/11 06:25:59;;;;;;;5.18;1.10;;;17.80;99.90;;;;;;4972135;28;20027;-84
2023/07/11 06:28:25;;;;;;;6.15;1.25;;;17.80;99.90;;;;;;4972044;28;20034;-84
2023/07/11 06:30:51;;;;;;;4.97;1.17;;;17.80;99.90;;;;;;4972134;28;20092;-84
2023/07/11 06:33:18;;;;;;;2.30;1.05;;;17.90;99.90;;;;;;4972162;28;20027;-85
2023/07/11 06:35:50;;;;;;;4.85;1.00;;;18.00;99.90;;;;;;4972364;28;20015;-84
2023/07/11 06:38:17;;;;;;;5.75;1.55;;;18.10;99.70;;;;;;4964443;28;20015;-84
2023/07/11 06:40:54;;;;;;;4.07;1.40;;;18.20;99.70;;;;;;4972514;28;20113;-83
2023/07/11 06:43:23;;;;;;;3.10;0.70;;;18.30;99.60;;;;;;4971611;28;20084;-83
2023/07/11 06:45:53;;;;;;;3.22;1.25;;;18.30;98.60;;;;;;4972238;28;20054;-83
2023/07/11 06:48:20;;;;;;;3.45;0.95;;;18.30;98.90;;;;;;4965028;28;20097;-82
2023/07/11 06:51:04;;;;;;;4.70;1.25;;;18.40;99.00;;;;;;4963640;28;20030;-84
2023/07/11 06:53:33;;;;;;;4.50;1.70;;;18.60;98.80;;;;;;4971917;28;21075;-84
2023/07/11 06:55:58;;;;;;;5.80;1.80;;;18.70;98.50;;;;;;4964321;28;20507;-83
2023/07/11 06:58:24;;;;;;;5.50;1.35;;;18.70;98.20;;;;;;4990105;23;20031;-81
2023/07/11 07:00:56;;;;;;;5.05;1.45;;;18.70;97.30;;;;;;4990952;28;20033;-82
2023/07/11 07:03:23;;;;;;;4.07;1.00;;;18.70;97.00;;;;;;4990901;28;20085;-81
2023/07/11 07:05:57;;;;;;;2.45;1.08;;;18.50;98.00;;;;;;4990349;28;20046;-81
2023/07/11 07:08:24;;;;;;;3.10;0.93;;;18.50;97.30;;;;;;4989986;28;20018;-80
2023/07/11 07:10:50;;;;;;;4.78;1.20;;;18.40;97.80;;;;;;4989837;28;20557;-80
2023/07/11 07:13:19;;;;;;;6.18;1.35;;;18.40;98.40;;;;;;4990491;28;20056;-82
2023/07/11 07:15:52;;;;;;;4.40;1.17;;;18.40;98.20;;;;;;4989935;28;20023;-81
2023/07/11 07:18:18;;;;;;;5.60;1.10;;;18.40;98.20;;;;;;4991091;28;20109;-81
2023/07/11 07:20:47;;;;;;;4.72;1.30;;;18.40;98.60;;;;;;4990566;28;20027;-80
2023/07/11 07:23:14;;;;;;;4.88;1.55;;;18.30;98.30;;;;;;4990316;28;20486;-81
2023/07/11 07:25:40;;;;;;;4.25;1.40;;;18.50;99.20;;;;;;4990983;28;20422;-80
2023/07/11 07:28:07;;;;;;;3.85;1.20;;;18.70;97.50;;;;;;4990643;28;20494;-80
2023/07/11 07:30:33;;;;;;;3.60;1.08;;;18.80;97.30;;;;;;4990787;28;20034;-80
2023/07/11 07:32:58;;;;;;;7.32;1.60;;;18.90;97.60;;;;;;4990866;28;20030;-80
2023/07/11 07:35:24;;;;;;;4.65;1.20;;;18.80;97.40;;;;;;4990801;28;20014;-81
2023/07/11 07:37:50;;;;;;;4.63;1.08;;;19.00;96.60;;;;;;4990701;28;20023;-80
2023/07/11 07:40:16;;;;;;;6.10;1.35;;;19.00;96.40;;;;;;4991095;28;20530;-79
2023/07/11 07:42:42;;;;;;;3.10;1.30;;;19.10;96.60;;;;;;4990515;28;20018;-80
2023/07/11 07:45:08;;;;;;;2.78;1.08;;;19.10;95.70;;;;;;4990674;28;20023;-81
2023/07/11 07:47:35;;;;;;;3.03;1.52;;;19.20;95.50;;;;;;4990253;28;20018;-80
2023/07/11 07:50:02;;;;;;;5.65;1.52;;;19.40;95.70;;;;;;4990335;28;20112;-80
2023/07/11 07:52:28;;;;;;;5.32;1.63;;;19.60;94.70;;;;;;4990183;28;20046;-81
2023/07/11 07:54:53;;;;;;;7.45;1.50;;;19.60;94.90;;;;;;4990857;28;20502;-81
2023/07/11 07:57:19;;;;;;;4.13;1.20;;;19.60;94.30;;;;;;4989802;28;20018;-80
2023/07/11 07:59:45;;;;;;;4.60;1.60;;;19.70;93.90;;;;;;4989037;28;20038;-79
2023/07/11 08:02:10;;;;;;;4.03;1.35;;;19.70;93.10;;;;;;4990636;28;20494;-80
2023/07/11 08:04:36;;;;;;;5.20;1.30;;;19.90;92.40;;;;;;4989710;28;20026;-80
2023/07/11 08:07:02;;;;;;;3.35;1.67;;;20.10;92.40;;;;;;4989285;28;20038;-80
2023/07/11 08:09:29;;;;;;;6.15;1.42;;;20.10;92.20;;;;;;4989761;28;20105;-80
2023/07/11 08:12:03;;;;;;;5.20;1.45;;;20.30;92.00;;;;;;4989581;28;20112;-79
2023/07/11 08:14:28;;;;;;;4.63;1.65;;;20.60;91.40;;;;;;4989249;28;20022;-80
2023/07/11 08:16:54;;;;;;;4.97;1.88;;;20.80;90.70;;;;;;4991213;28;20033;-81
2023/07/11 08:19:19;;;;;;;5.82;1.45;;;20.90;89.40;;;;;;4993740;28;20025;-80
2023/07/11 08:21:45;;;;;;;6.45;2.17;;;21.20;90.60;;;;;;4992801;28;20430;-81
2023/07/11 08:24:12;;;;;;;4.55;1.50;;;21.40;89.10;;;;;;4993955;28;20037;-81
2023/07/11 08:26:38;;;;;;;5.90;1.92;;;21.50;89.10;;;;;;4994319;28;20057;-82
2023/07/11 08:29:04;;;;;;;3.28;1.23;;;21.70;88.80;;;;;;5001708;23;20043;-82
2023/07/11 08:31:29;;;;;;;5.85;1.60;;;21.80;85.80;;;;;;4957394;28;20395;-83
2023/07/11 08:33:55;;;;;;;8.07;1.67;;;21.80;85.90;;;;;;4974808;28;20054;-81
2023/07/11 08:36:20;;;;;;;4.28;1.20;;;22.00;86.10;;;;;;4974504;28;20025;-82
2023/07/11 08:38:46;;;;;;;4.90;1.50;;;22.10;86.60;;;;;;4974523;28;20456;-83
2023/07/11 08:41:20;;;;;;;5.28;1.48;;;22.10;83.40;;;;;;4975052;28;20035;-82
2023/07/11 08:43:47;;;;;;;4.30;1.70;;;22.10;84.80;;;;;;4967807;28;20023;-81
2023/07/11 08:46:15;;;;;;;5.40;1.45;;;22.70;84.00;;;;;;4974187;28;20515;-83
2023/07/11 08:48:48;;;;;;;3.15;1.45;;;23.30;81.20;;;;;;4974060;28;20058;-81
2023/07/11 08:51:34;;;;;;;3.05;1.23;;;24.00;77.20;;;;;;4974434;28;20031;-81
2023/07/11 08:54:10;;;;;;;7.72;1.60;;;24.00;74.00;;;;;;4969695;28;20058;-82
2023/07/11 08:56:39;;;;;;;5.00;1.40;;;24.20;74.90;;;;;;4952472;28;20019;-81
2023/07/11 08:59:08;;;;;;;12.82;1.90;;;24.00;73.80;;;;;;4956269;28;20027;-80
2023/07/11 09:01:51;;;;;;;3.95;1.58;;;23.70;74.20;;;;;;4973755;28;20015;-82
2023/07/11 09:04:22;;;;;;;14.60;3.50;;;23.70;76.00;;;;;;4973687;28;20027;-81
2023/07/11 09:06:54;;;;;;;4.07;1.67;;;24.10;72.70;;;;;;4973927;28;20030;-83
2023/07/11 09:09:20;;;;;;;4.88;1.90;;;24.30;71.70;;;;;;4973861;28;20030;-81
2023/07/11 09:12:01;;;;;;;8.40;2.20;;;24.50;72.70;;;;;;4973499;28;20404;-82
2023/07/11 09:14:39;;;;;;;3.83;1.35;;;24.50;71.60;;;;;;4973445;28;20724;-81
2023/07/11 09:17:14;;;;;;;9.05;2.13;;;24.50;69.90;;;;;;4973583;28;20058;-81
2023/07/11 09:19:48;;;;;;;2.55;1.40;;;24.30;71.70;;;;;;4973634;28;20019;-80
2023/07/11 09:22:33;;;;;;;6.57;1.58;;;24.40;72.70;;;;;;4973829;28;20031;-82
2023/07/11 09:25:10;;;;;;;9.50;2.50;;;24.70;70.90;;;;;;4973760;28;20031;-82
2023/07/11 09:30:20;;;;;;;5.50;1.50;;;24.90;69.90;;;;;;4976537;28;20047;-81
2023/07/11 09:32:45;;;;;;;5.35;1.60;;;25.50;66.30;;;;;;4956361;28;20031;-81
2023/07/11 09:35:30;;;;;;;4.63;1.85;;;25.90;68.40;;;;;;4973362;28;20035;-80
2023/07/11 09:38:03;;;;;;;8.70;1.50;;;26.00;63.80;;;;;;4953934;28;20042;-81
2023/07/11 09:40:40;;;;;;;7.30;1.73;;;25.30;65.70;;;;;;4954127;28;20104;-80
2023/07/11 09:43:08;;;;;;;4.25;1.60;;;25.00;66.50;;;;;;4952266;28;20024;-81
2023/07/11 09:45:37;;;;;;;6.45;1.42;;;24.70;67.70;;;;;;4954136;28;20111;-80
2023/07/11 09:48:16;;;;;;;4.68;1.27;;;24.80;67.80;;;;;;4953792;28;20023;-81
2023/07/11 09:51:06;;;;;;;5.28;1.60;;;24.90;68.50;;;;;;4953783;28;20043;-80
2023/07/11 09:53:32;;;;;;;4.73;1.83;;;25.00;66.30;;;;;;4953735;28;20015;-80
2023/07/11 09:56:03;;;;;;;3.90;1.30;;;25.00;66.10;;;;;;4953679;28;20280;-80
2023/07/11 09:58:32;;;;;;;6.28;1.70;;;25.20;67.30;;;;;;4941289;28;20116;-80
2023/07/11 10:01:01;;;;;;;5.57;1.40;;;25.30;66.10;;;;;;4953855;28;20044;-81
2023/07/11 10:03:29;;;;;;;5.68;1.55;;;25.60;65.10;;;;;;4953497;28;20387;-81
2023/07/11 10:05:54;;;;;;;6.53;2.05;;;25.90;63.20;;;;;;4953596;28;20086;-80
2023/07/11 10:08:23;;;;;;;7.85;1.85;;;26.20;62.60;;;;;;4953754;28;20448;-80
2023/07/11 10:10:51;;;;;;;5.50;1.50;;;26.60;61.70;;;;;;4953220;28;20508;-80
2023/07/11 10:13:18;;;;;;;6.72;1.77;;;27.00;59.50;;;;;;4935106;28;20035;-80
2023/07/11 10:15:48;;;;;;;2.35;1.20;;;26.80;59.70;;;;;;4952481;28;20025;-81
2023/07/11 10:18:23;;;;;;;6.45;1.90;;;27.00;59.50;;;;;;4947155;28;20544;-80
2023/07/11 10:21:14;;;;;;;3.53;1.27;;;27.50;58.50;;;;;;4953346;28;20035;-79
2023/07/11 10:23:42;;;;;;;4.32;1.45;;;27.40;58.00;;;;;;4968402;28;20627;-81
2023/07/11 10:26:11;;;;;;;3.95;1.65;;;27.10;56.80;;;;;;4953206;28;20031;-80
2023/07/11 10:28:43;;;;;;;3.28;1.38;;;26.70;58.40;;;;;;4977136;23;20042;-81
2023/07/11 10:31:18;;;;;;;5.88;1.70;;;26.70;60.30;;;;;;4971373;28;20039;-82
2023/07/11 10:33:53;;;;;;;6.68;2.30;;;27.30;58.70;;;;;;4971523;28;20023;-82
2023/07/11 10:36:46;;;;;;;8.88;1.30;;;28.60;57.30;;;;;;4971218;28;20471;-82
2023/07/11 10:39:21;;;;;;;4.88;1.45;;;28.40;52.70;;;;;;4963641;28;20051;-81
2023/07/11 10:42:05;;;;;;;5.03;1.80;;;28.00;53.50;;;;;;4972301;28;20045;-81
2023/07/11 10:44:37;;;;;;;8.40;1.70;;;27.50;55.60;;;;;;4971961;28;20041;-81
2023/07/11 10:47:04;;;;;;;6.80;1.88;;;27.50;55.90;;;;;;4972160;28;20019;-83
2023/07/11 10:49:43;;;;;;;4.40;2.03;;;28.00;56.60;;;;;;4972028;28;20062;-81
2023/07/11 10:52:21;;;;;;;4.45;1.67;;;28.90;53.80;;;;;;4972145;28;20034;-84
2023/07/11 10:54:56;;;;;;;7.68;1.92;;;29.90;52.90;;;;;;4972379;28;20011;-83
2023/07/11 10:57:57;;;;;;;8.07;1.65;;;30.40;48.10;;;;;;4966311;28;20022;-82
2023/07/11 11:00:56;;;;;;;5.35;1.80;;;31.00;47.60;;;;;;4968429;28;20109;-83
2023/07/11 11:03:36;;;;;;;4.50;1.30;;;32.50;46.20;;;;;;4972329;28;20522;-83
2023/07/11 11:06:19;;;;;;;3.50;1.75;;;32.20;45.10;;;;;;4971856;28;20031;-82
2023/07/11 11:08:49;;;;;;;4.60;1.27;;;31.80;44.30;;;;;;4971788;28;20484;-81
2023/07/11 11:11:52;;;;;;;5.05;1.70;;;30.60;44.00;;;;;;4971999;28;20035;-81
2023/07/11 11:14:40;;;;;;;4.20;1.25;;;30.30;47.40;;;;;;4970830;28;20603;-81
2023/07/11 11:17:45;;;;;;;7.80;2.55;;;30.70;47.50;;;;;;4954680;28;20042;-81
2023/07/11 11:20:19;;;;;;;4.82;1.42;;;30.40;47.20;;;;;;4963722;28;20031;-81
2023/07/11 11:23:14;;;;;;;4.63;1.70;;;30.20;47.50;;;;;;4980644;28;20037;-81
2023/07/11 11:26:23;;;;;;;5.55;1.40;;;29.40;49.20;;;;;;4966982;28;20019;-81
2023/07/11 11:29:01;;;;;;;5.10;1.60;;;28.10;50.70;;;;;;4988556;23;20057;-81
2023/07/11 11:31:29;;;;;;;6.65;1.65;;;27.70;52.00;;;;;;4991175;28;20390;-82
2023/07/11 11:34:16;;;;;;;5.28;1.50;;;27.80;52.80;;;;;;4991101;28;20360;-81
2023/07/11 11:36:48;;;;;;;6.47;1.73;;;28.70;49.60;;;;;;4991007;28;20039;-80
2023/07/11 11:39:47;;;;;;;5.78;2.08;;;29.20;50.00;;;;;;4991198;28;20091;-80
2023/07/11 11:42:24;;;;;;;4.63;1.73;;;29.20;50.30;;;;;;4987405;28;20034;-80
2023/07/11 11:44:55;;;;;;;6.13;1.70;;;29.90;48.70;;;;;;4990530;28;20022;-81
2023/07/11 11:47:22;;;;;;;8.32;1.50;;;30.80;49.00;;;;;;4991035;28;20026;-81
2023/07/11 11:49:49;;;;;;;7.43;2.00;;;31.00;46.90;;;;;;4990731;28;20080;-79
2023/07/11 11:52:15;;;;;;;7.15;1.83;;;30.60;45.90;;;;;;4993557;28;20571;-81
2023/07/11 11:54:46;;;;;;;6.78;2.08;;;30.70;45.40;;;;;;4995056;28;20073;-79
2023/07/11 11:57:27;;;;;;;3.78;1.90;;;30.90;45.80;;;;;;4994711;28;20049;-81
2023/07/11 11:59:53;;;;;;;5.60;1.77;;;30.90;46.10;;;;;;4994091;28;20073;-80
2023/07/11 12:02:38;;;;;;;9.68;2.65;;;30.80;46.10;;;;;;4994247;28;20026;-80
2023/07/11 12:05:19;;;;;;;7.22;2.10;;;30.70;45.50;;;;;;4976662;28;20030;-79
2023/07/11 12:07:45;;;;;;;8.07;2.15;;;31.10;46.10;;;;;;4994807;28;20088;-80
2023/07/11 12:10:12;;;;;;;5.28;2.00;;;30.80;45.50;;;;;;4999638;28;20434;-80
2023/07/11 12:12:52;;;;;;;6.43;1.80;;;30.70;43.70;;;;;;4994293;28;20020;-79
2023/07/11 12:15:31;;;;;;;4.93;1.92;;;30.40;45.80;;;;;;4992856;28;20098;-81
2023/07/11 12:18:14;;;;;;;5.80;1.90;;;30.90;48.00;;;;;;4976652;28;20044;-80
2023/07/11 12:20:40;;;;;;;5.78;1.42;;;32.40;44.90;;;;;;4993996;28;20500;-79
2023/07/11 12:23:06;;;;;;;8.25;1.63;;;33.50;41.40;;;;;;4993646;28;20022;-81
2023/07/11 12:25:31;;;;;;;11.27;2.22;;;33.30;39.70;;;;;;4994049;28;20081;-82
2023/07/11 12:28:00;;;;;;;8.50;2.22;;;33.90;39.60;;;;;;5007465;23;20370;-85
2023/07/11 12:30:44;;;;;;;7.97;1.50;;;33.30;40.50;;;;;;4975863;28;20085;-82
2023/07/11 12:33:29;;;;;;;7.25;1.95;;;33.60;41.60;;;;;;4974247;28;20019;-81
2023/07/11 12:36:30;;;;;;;6.72;1.50;;;33.60;39.90;;;;;;4974380;28;20033;-81
2023/07/11 12:39:09;;;;;;;4.60;1.20;;;33.40;38.60;;;;;;4966245;28;20033;-80
2023/07/11 12:41:52;;;;;;;3.92;1.75;;;33.80;38.70;;;;;;4957273;28;20387;-82
2023/07/11 12:44:18;;;;;;;10.95;2.30;;;34.00;36.80;;;;;;4956951;28;20038;-81
2023/07/11 12:46:48;;;;;;;7.18;1.83;;;33.20;38.10;;;;;;4973687;28;20105;-82
2023/07/11 12:49:36;;;;;;;4.75;1.85;;;33.00;39.30;;;;;;4973937;28;20025;-82
2023/07/11 12:52:21;;;;;;;6.72;1.77;;;32.60;40.50;;;;;;4984811;28;20159;-82
2023/07/11 12:54:48;;;;;;;6.22;2.20;;;31.10;40.20;;;;;;4970146;28;20030;-82
2023/07/11 12:57:23;;;;;;;5.15;1.73;;;30.60;42.80;;;;;;4974194;28;20439;-82
2023/07/11 12:59:49;;;;;;;6.63;2.05;;;30.10;45.30;;;;;;4956447;28;20031;-81
2023/07/11 13:02:22;;;;;;;6.43;2.20;;;29.20;46.90;;;;;;4973552;28;20034;-82